sensor_id;sensor_type;location;lat;lon;timestamp;P1;durP1;ratioP1;P2;durP2;ratioP2
291;SDS011;23311;48.776;9.162;2023-02-28T00:01:28;4.73;;;2.80;;
291;SDS011;23311;48.776;9.162;2023-02-28T00:03:56;2.83;;;2.70;;
291;SDS011;23311;48.776;9.162;2023-02-28T00:06:25;3.90;;;2.83;;
291;SDS011;23311;48.776;9.162;2023-02-28T00:08:53;3.27;;;2.37;;
291;SDS011;23311;48.776;9.162;2023-02-28T00:11:22;3.37;;;2.73;;
291;SDS011;23311;48.776;9.162;2023-02-28T00:13:50;4.80;;;2.50;;
291;SDS011;23311;48.776;9.162;2023-02-28T00:16:19;3.77;;;2.50;;
291;SDS011;23311;48.776;9.162;2023-02-28T00:18:50;4.80;;;2.80;;
291;SDS011;23311;48.776;9.162;2023-02-28T00:21:19;2.60;;;2.30;;
291;SDS011;23311;48.776;9.162;2023-02-28T00:23:48;4.67;;;2.30;;
291;SDS011;23311;48.776;9.162;2023-02-28T00:26:16;4.60;;;2.83;;
291;SDS011;23311;48.776;9.162;2023-02-28T00:28:47;3.97;;;2.57;;
291;SDS011;23311;48.776;9.162;2023-02-28T00:31:15;5.50;;;2.90;;
291;SDS011;23311;48.776;9.162;2023-02-28T00:33:43;3.30;;;2.80;;
291;SDS011;23311;48.776;9.162;2023-02-28T00:36:13;3.63;;;2.50;;
291;SDS011;23311;48.776;9.162;2023-02-28T00:38:41;2.73;;;2.40;;
291;SDS011;23311;48.776;9.162;2023-02-28T00:41:09;4.53;;;2.47;;
291;SDS011;23311;48.776;9.162;2023-02-28T00:43:38;5.27;;;2.67;;
291;SDS011;23311;48.776;9.162;2023-02-28T00:46:07;3.57;;;2.70;;
291;SDS011;23311;48.776;9.162;2023-02-28T00:48:35;3.63;;;2.70;;
291;SDS011;23311;48.776;9.162;2023-02-28T00:51:03;3.33;;;3.00;;
291;SDS011;23311;48.776;9.162;2023-02-28T00:53:33;3.80;;;2.70;;
291;SDS011;23311;48.776;9.162;2023-02-28T00:56:01;4.83;;;2.77;;
291;SDS011;23311;48.776;9.162;2023-02-28T00:58:29;4.33;;;3.00;;
291;SDS011;23311;48.776;9.162;2023-02-28T01:00:57;4.10;;;2.90;;
291;SDS011;23311;48.776;9.162;2023-02-28T01:03:25;2.90;;;2.53;;
291;SDS011;23311;48.776;9.162;2023-02-28T01:05:53;3.00;;;2.43;;
291;SDS011;23311;48.776;9.162;2023-02-28T01:08:22;3.30;;;2.80;;
291;SDS011;23311;48.776;9.162;2023-02-28T01:10:51;4.17;;;2.80;;
291;SDS011;23311;48.776;9.162;2023-02-28T01:13:19;4.37;;;3.00;;
291;SDS011;23311;48.776;9.162;2023-02-28T01:15:49;4.37;;;2.93;;
291;SDS011;23311;48.776;9.162;2023-02-28T01:18:18;4.27;;;2.83;;
291;SDS011;23311;48.776;9.162;2023-02-28T01:20:46;4.00;;;3.47;;
291;SDS011;23311;48.776;9.162;2023-02-28T01:23:15;4.70;;;3.23;;
291;SDS011;23311;48.776;9.162;2023-02-28T01:25:43;4.73;;;3.07;;
291;SDS011;23311;48.776;9.162;2023-02-28T01:28:12;3.83;;;2.90;;
291;SDS011;23311;48.776;9.162;2023-02-28T01:30:40;6.97;;;3.53;;
291;SDS011;23311;48.776;9.162;2023-02-28T01:33:09;4.10;;;3.27;;
291;SDS011;23311;48.776;9.162;2023-02-28T01:35:36;3.33;;;3.03;;
291;SDS011;23311;48.776;9.162;2023-02-28T01:38:04;3.90;;;3.03;;
291;SDS011;23311;48.776;9.162;2023-02-28T01:40:47;3.40;;;3.00;;
291;SDS011;23311;48.776;9.162;2023-02-28T01:43:19;4.23;;;2.90;;
291;SDS011;23311;48.776;9.162;2023-02-28T01:45:49;3.20;;;3.00;;
291;SDS011;23311;48.776;9.162;2023-02-28T01:48:17;4.07;;;3.13;;
291;SDS011;23311;48.776;9.162;2023-02-28T01:50:48;5.67;;;3.30;;
291;SDS011;23311;48.776;9.162;2023-02-28T01:53:18;6.43;;;3.90;;
291;SDS011;23311;48.776;9.162;2023-02-28T01:55:49;3.90;;;3.60;;
291;SDS011;23311;48.776;9.162;2023-02-28T01:58:21;6.80;;;3.77;;
291;SDS011;23311;48.776;9.162;2023-02-28T02:00:49;5.50;;;3.73;;
291;SDS011;23311;48.776;9.162;2023-02-28T02:03:18;3.67;;;3.47;;
291;SDS011;23311;48.776;9.162;2023-02-28T02:05:48;5.60;;;4.30;;
291;SDS011;23311;48.776;9.162;2023-02-28T02:08:17;3.80;;;3.60;;
291;SDS011;23311;48.776;9.162;2023-02-28T02:10:47;4.07;;;3.50;;
291;SDS011;23311;48.776;9.162;2023-02-28T02:13:24;4.97;;;3.67;;
291;SDS011;23311;48.776;9.162;2023-02-28T02:16:03;9.80;;;3.87;;
291;SDS011;23311;48.776;9.162;2023-02-28T02:18:38;4.67;;;4.10;;
291;SDS011;23311;48.776;9.162;2023-02-28T02:24:28;4.37;;;4.07;;
291;SDS011;23311;48.776;9.162;2023-02-28T02:27:33;5.30;;;4.50;;
291;SDS011;23311;48.776;9.162;2023-02-28T02:30:23;4.10;;;3.63;;
291;SDS011;23311;48.776;9.162;2023-02-28T02:36:05;4.83;;;4.30;;
291;SDS011;23311;48.776;9.162;2023-02-28T02:38:37;4.83;;;4.00;;
291;SDS011;23311;48.776;9.162;2023-02-28T02:41:13;5.50;;;4.40;;
291;SDS011;23311;48.776;9.162;2023-02-28T02:43:46;8.60;;;4.80;;
291;SDS011;23311;48.776;9.162;2023-02-28T02:46:19;5.57;;;4.20;;
291;SDS011;23311;48.776;9.162;2023-02-28T02:48:50;4.50;;;4.20;;
291;SDS011;23311;48.776;9.162;2023-02-28T02:51:32;5.40;;;4.30;;
291;SDS011;23311;48.776;9.162;2023-02-28T02:54:03;5.50;;;4.00;;
291;SDS011;23311;48.776;9.162;2023-02-28T02:56:35;4.37;;;4.07;;
291;SDS011;23311;48.776;9.162;2023-02-28T02:59:06;4.40;;;4.03;;
291;SDS011;23311;48.776;9.162;2023-02-28T03:01:38;5.87;;;4.13;;
291;SDS011;23311;48.776;9.162;2023-02-28T03:04:09;4.23;;;3.97;;
291;SDS011;23311;48.776;9.162;2023-02-28T03:06:41;5.03;;;4.60;;
291;SDS011;23311;48.776;9.162;2023-02-28T03:09:09;6.80;;;4.77;;
291;SDS011;23311;48.776;9.162;2023-02-28T03:11:37;6.43;;;4.53;;
291;SDS011;23311;48.776;9.162;2023-02-28T03:14:16;5.43;;;4.57;;
291;SDS011;23311;48.776;9.162;2023-02-28T03:19:55;4.83;;;4.57;;
291;SDS011;23311;48.776;9.162;2023-02-28T03:22:42;5.60;;;4.43;;
291;SDS011;23311;48.776;9.162;2023-02-28T03:25:20;5.50;;;4.83;;
291;SDS011;23311;48.776;9.162;2023-02-28T03:27:57;4.50;;;4.20;;
291;SDS011;23311;48.776;9.162;2023-02-28T03:30:33;5.57;;;5.17;;
291;SDS011;23311;48.776;9.162;2023-02-28T03:33:08;5.30;;;4.73;;
291;SDS011;23311;48.776;9.162;2023-02-28T03:35:40;4.30;;;4.07;;
291;SDS011;23311;48.776;9.162;2023-02-28T03:38:13;5.97;;;4.70;;
291;SDS011;23311;48.776;9.162;2023-02-28T03:40:47;4.10;;;3.83;;
291;SDS011;23311;48.776;9.162;2023-02-28T03:43:19;5.80;;;4.67;;
291;SDS011;23311;48.776;9.162;2023-02-28T03:45:52;4.77;;;3.93;;
291;SDS011;23311;48.776;9.162;2023-02-28T03:48:24;5.23;;;4.60;;
291;SDS011;23311;48.776;9.162;2023-02-28T03:50:55;4.77;;;4.23;;
291;SDS011;23311;48.776;9.162;2023-02-28T03:53:27;5.40;;;4.83;;
291;SDS011;23311;48.776;9.162;2023-02-28T03:56:01;5.87;;;4.90;;
291;SDS011;23311;48.776;9.162;2023-02-28T03:58:36;4.80;;;4.57;;
291;SDS011;23311;48.776;9.162;2023-02-28T04:01:09;7.17;;;5.30;;
291;SDS011;23311;48.776;9.162;2023-02-28T04:03:42;6.97;;;4.63;;
291;SDS011;23311;48.776;9.162;2023-02-28T04:06:13;4.90;;;4.30;;
291;SDS011;23311;48.776;9.162;2023-02-28T04:08:45;6.50;;;4.77;;
291;SDS011;23311;48.776;9.162;2023-02-28T04:11:17;5.97;;;4.77;;
291;SDS011;23311;48.776;9.162;2023-02-28T04:13:48;5.60;;;4.77;;
291;SDS011;23311;48.776;9.162;2023-02-28T04:16:17;5.90;;;4.93;;
291;SDS011;23311;48.776;9.162;2023-02-28T04:19:00;6.73;;;4.73;;
291;SDS011;23311;48.776;9.162;2023-02-28T04:21:30;5.77;;;5.33;;
291;SDS011;23311;48.776;9.162;2023-02-28T04:24:00;4.80;;;4.27;;
291;SDS011;23311;48.776;9.162;2023-02-28T04:26:29;6.33;;;4.90;;
291;SDS011;23311;48.776;9.162;2023-02-28T04:28:58;7.50;;;4.87;;
291;SDS011;23311;48.776;9.162;2023-02-28T04:31:27;5.83;;;4.93;;
291;SDS011;23311;48.776;9.162;2023-02-28T04:33:56;6.00;;;4.50;;
291;SDS011;23311;48.776;9.162;2023-02-28T04:36:24;6.03;;;4.70;;
291;SDS011;23311;48.776;9.162;2023-02-28T04:38:53;5.30;;;4.77;;
291;SDS011;23311;48.776;9.162;2023-02-28T04:41:22;5.30;;;5.10;;
291;SDS011;23311;48.776;9.162;2023-02-28T04:43:51;5.47;;;5.03;;
291;SDS011;23311;48.776;9.162;2023-02-28T04:46:19;10.03;;;6.07;;
291;SDS011;23311;48.776;9.162;2023-02-28T04:48:48;6.90;;;6.00;;
291;SDS011;23311;48.776;9.162;2023-02-28T04:51:17;8.53;;;5.47;;
291;SDS011;23311;48.776;9.162;2023-02-28T04:53:46;5.47;;;5.20;;
291;SDS011;23311;48.776;9.162;2023-02-28T04:56:15;5.30;;;5.00;;
291;SDS011;23311;48.776;9.162;2023-02-28T04:58:46;5.10;;;4.80;;
291;SDS011;23311;48.776;9.162;2023-02-28T05:01:19;7.20;;;5.13;;
291;SDS011;23311;48.776;9.162;2023-02-28T05:03:49;5.50;;;4.80;;
291;SDS011;23311;48.776;9.162;2023-02-28T05:06:18;6.93;;;5.23;;
291;SDS011;23311;48.776;9.162;2023-02-28T05:08:47;7.87;;;5.50;;
291;SDS011;23311;48.776;9.162;2023-02-28T05:11:16;5.30;;;4.77;;
291;SDS011;23311;48.776;9.162;2023-02-28T05:13:47;6.60;;;5.07;;
291;SDS011;23311;48.776;9.162;2023-02-28T05:16:16;6.57;;;5.57;;
291;SDS011;23311;48.776;9.162;2023-02-28T05:18:45;7.00;;;5.60;;
291;SDS011;23311;48.776;9.162;2023-02-28T05:21:24;6.60;;;5.50;;
291;SDS011;23311;48.776;9.162;2023-02-28T05:23:55;6.03;;;4.83;;
291;SDS011;23311;48.776;9.162;2023-02-28T05:26:24;6.27;;;5.73;;
291;SDS011;23311;48.776;9.162;2023-02-28T05:28:54;9.93;;;5.17;;
291;SDS011;23311;48.776;9.162;2023-02-28T05:31:23;6.70;;;5.60;;
291;SDS011;23311;48.776;9.162;2023-02-28T05:33:51;7.27;;;5.87;;
291;SDS011;23311;48.776;9.162;2023-02-28T05:36:19;6.87;;;5.70;;
291;SDS011;23311;48.776;9.162;2023-02-28T05:38:48;6.63;;;5.00;;
291;SDS011;23311;48.776;9.162;2023-02-28T05:41:17;10.53;;;5.60;;
291;SDS011;23311;48.776;9.162;2023-02-28T05:43:46;7.23;;;5.90;;
291;SDS011;23311;48.776;9.162;2023-02-28T05:46:16;7.07;;;5.93;;
291;SDS011;23311;48.776;9.162;2023-02-28T05:48:46;7.03;;;5.20;;
291;SDS011;23311;48.776;9.162;2023-02-28T05:51:15;7.80;;;5.33;;
291;SDS011;23311;48.776;9.162;2023-02-28T05:53:44;8.20;;;6.20;;
291;SDS011;23311;48.776;9.162;2023-02-28T05:56:13;7.43;;;5.50;;
291;SDS011;23311;48.776;9.162;2023-02-28T05:58:41;9.30;;;6.40;;
291;SDS011;23311;48.776;9.162;2023-02-28T06:01:21;9.03;;;6.43;;
291;SDS011;23311;48.776;9.162;2023-02-28T06:03:51;8.83;;;5.70;;
291;SDS011;23311;48.776;9.162;2023-02-28T06:06:19;9.03;;;6.33;;
291;SDS011;23311;48.776;9.162;2023-02-28T06:08:47;7.63;;;5.80;;
291;SDS011;23311;48.776;9.162;2023-02-28T06:11:15;8.67;;;5.93;;
291;SDS011;23311;48.776;9.162;2023-02-28T06:13:43;6.93;;;5.40;;
291;SDS011;23311;48.776;9.162;2023-02-28T06:16:12;6.73;;;5.67;;
291;SDS011;23311;48.776;9.162;2023-02-28T06:18:41;7.97;;;6.07;;
291;SDS011;23311;48.776;9.162;2023-02-28T06:21:09;6.13;;;5.70;;
291;SDS011;23311;48.776;9.162;2023-02-28T06:23:37;7.83;;;5.70;;
291;SDS011;23311;48.776;9.162;2023-02-28T06:26:06;7.70;;;6.90;;
291;SDS011;23311;48.776;9.162;2023-02-28T06:28:34;7.07;;;5.90;;
291;SDS011;23311;48.776;9.162;2023-02-28T06:31:05;6.17;;;5.77;;
291;SDS011;23311;48.776;9.162;2023-02-28T06:33:34;8.33;;;5.70;;
291;SDS011;23311;48.776;9.162;2023-02-28T06:36:04;7.03;;;6.27;;
291;SDS011;23311;48.776;9.162;2023-02-28T06:38:34;8.70;;;6.57;;
291;SDS011;23311;48.776;9.162;2023-02-28T06:41:02;11.17;;;7.10;;
291;SDS011;23311;48.776;9.162;2023-02-28T06:43:31;9.80;;;6.60;;
291;SDS011;23311;48.776;9.162;2023-02-28T06:46:03;6.13;;;5.87;;
291;SDS011;23311;48.776;9.162;2023-02-28T06:48:32;6.70;;;5.43;;
291;SDS011;23311;48.776;9.162;2023-02-28T06:51:02;7.50;;;6.13;;
291;SDS011;23311;48.776;9.162;2023-02-28T06:53:33;8.80;;;6.70;;
291;SDS011;23311;48.776;9.162;2023-02-28T06:56:03;8.73;;;6.63;;
291;SDS011;23311;48.776;9.162;2023-02-28T06:58:32;8.30;;;6.30;;
291;SDS011;23311;48.776;9.162;2023-02-28T07:01:02;8.77;;;6.40;;
291;SDS011;23311;48.776;9.162;2023-02-28T07:03:31;10.63;;;6.80;;
291;SDS011;23311;48.776;9.162;2023-02-28T07:06:00;7.53;;;6.23;;
291;SDS011;23311;48.776;9.162;2023-02-28T07:08:31;6.97;;;5.90;;
291;SDS011;23311;48.776;9.162;2023-02-28T07:10:59;8.70;;;6.30;;
291;SDS011;23311;48.776;9.162;2023-02-28T07:13:28;7.63;;;6.37;;
291;SDS011;23311;48.776;9.162;2023-02-28T07:15:57;7.67;;;5.60;;
291;SDS011;23311;48.776;9.162;2023-02-28T07:18:26;9.03;;;6.10;;
291;SDS011;23311;48.776;9.162;2023-02-28T07:20:54;8.03;;;6.03;;
291;SDS011;23311;48.776;9.162;2023-02-28T07:23:23;7.57;;;6.47;;
291;SDS011;23311;48.776;9.162;2023-02-28T07:25:52;7.60;;;6.00;;
291;SDS011;23311;48.776;9.162;2023-02-28T07:28:21;9.70;;;6.60;;
291;SDS011;23311;48.776;9.162;2023-02-28T07:30:49;9.50;;;6.90;;
291;SDS011;23311;48.776;9.162;2023-02-28T07:33:17;10.60;;;6.53;;
291;SDS011;23311;48.776;9.162;2023-02-28T07:35:45;10.77;;;7.07;;
291;SDS011;23311;48.776;9.162;2023-02-28T07:38:13;9.63;;;6.30;;
291;SDS011;23311;48.776;9.162;2023-02-28T07:40:41;7.77;;;6.40;;
291;SDS011;23311;48.776;9.162;2023-02-28T07:43:11;7.17;;;6.23;;
291;SDS011;23311;48.776;9.162;2023-02-28T07:45:39;10.07;;;6.23;;
291;SDS011;23311;48.776;9.162;2023-02-28T07:48:07;7.33;;;6.67;;
291;SDS011;23311;48.776;9.162;2023-02-28T07:50:36;10.40;;;7.17;;
291;SDS011;23311;48.776;9.162;2023-02-28T07:53:04;11.23;;;6.60;;
291;SDS011;23311;48.776;9.162;2023-02-28T07:55:32;6.90;;;6.53;;
291;SDS011;23311;48.776;9.162;2023-02-28T07:58:01;9.47;;;7.90;;
291;SDS011;23311;48.776;9.162;2023-02-28T08:00:30;9.73;;;7.27;;
291;SDS011;23311;48.776;9.162;2023-02-28T08:02:59;11.70;;;6.60;;
291;SDS011;23311;48.776;9.162;2023-02-28T08:05:27;8.50;;;6.67;;
291;SDS011;23311;48.776;9.162;2023-02-28T08:07:56;9.67;;;6.40;;
291;SDS011;23311;48.776;9.162;2023-02-28T08:10:24;8.13;;;7.13;;
291;SDS011;23311;48.776;9.162;2023-02-28T08:12:52;9.23;;;7.50;;
291;SDS011;23311;48.776;9.162;2023-02-28T08:15:20;8.80;;;6.93;;
291;SDS011;23311;48.776;9.162;2023-02-28T08:17:50;9.67;;;7.90;;
291;SDS011;23311;48.776;9.162;2023-02-28T08:20:18;8.97;;;7.37;;
291;SDS011;23311;48.776;9.162;2023-02-28T08:22:46;9.50;;;7.20;;
291;SDS011;23311;48.776;9.162;2023-02-28T08:25:14;8.33;;;7.13;;
291;SDS011;23311;48.776;9.162;2023-02-28T08:27:42;10.23;;;7.90;;
291;SDS011;23311;48.776;9.162;2023-02-28T08:30:11;10.27;;;7.70;;
291;SDS011;23311;48.776;9.162;2023-02-28T08:32:40;9.47;;;7.40;;
291;SDS011;23311;48.776;9.162;2023-02-28T08:35:10;8.57;;;7.33;;
291;SDS011;23311;48.776;9.162;2023-02-28T08:37:38;11.27;;;7.90;;
291;SDS011;23311;48.776;9.162;2023-02-28T08:40:06;10.03;;;7.20;;
291;SDS011;23311;48.776;9.162;2023-02-28T08:42:35;11.20;;;8.60;;
291;SDS011;23311;48.776;9.162;2023-02-28T08:45:04;8.83;;;7.20;;
291;SDS011;23311;48.776;9.162;2023-02-28T08:47:33;10.30;;;7.60;;
291;SDS011;23311;48.776;9.162;2023-02-28T08:50:01;9.90;;;7.77;;
291;SDS011;23311;48.776;9.162;2023-02-28T08:52:30;9.37;;;7.37;;
291;SDS011;23311;48.776;9.162;2023-02-28T08:54:58;8.13;;;7.63;;
291;SDS011;23311;48.776;9.162;2023-02-28T08:57:27;10.20;;;6.97;;
291;SDS011;23311;48.776;9.162;2023-02-28T08:59:55;9.23;;;8.40;;
291;SDS011;23311;48.776;9.162;2023-02-28T09:02:23;11.83;;;7.87;;
291;SDS011;23311;48.776;9.162;2023-02-28T09:04:51;9.03;;;7.20;;
291;SDS011;23311;48.776;9.162;2023-02-28T09:07:19;10.77;;;7.80;;
291;SDS011;23311;48.776;9.162;2023-02-28T09:09:49;12.30;;;7.60;;
291;SDS011;23311;48.776;9.162;2023-02-28T09:12:24;7.73;;;7.10;;
291;SDS011;23311;48.776;9.162;2023-02-28T09:14:53;8.10;;;6.87;;
291;SDS011;23311;48.776;9.162;2023-02-28T09:17:21;10.50;;;7.60;;
291;SDS011;23311;48.776;9.162;2023-02-28T09:19:56;9.47;;;7.83;;
291;SDS011;23311;48.776;9.162;2023-02-28T09:22:24;11.03;;;8.90;;
291;SDS011;23311;48.776;9.162;2023-02-28T09:24:54;12.30;;;7.60;;
291;SDS011;23311;48.776;9.162;2023-02-28T09:27:22;10.83;;;7.13;;
291;SDS011;23311;48.776;9.162;2023-02-28T09:29:50;9.00;;;7.57;;
291;SDS011;23311;48.776;9.162;2023-02-28T09:32:18;9.07;;;7.00;;
291;SDS011;23311;48.776;9.162;2023-02-28T09:34:46;13.10;;;8.63;;
291;SDS011;23311;48.776;9.162;2023-02-28T09:37:14;11.83;;;8.07;;
291;SDS011;23311;48.776;9.162;2023-02-28T09:39:42;9.73;;;8.00;;
291;SDS011;23311;48.776;9.162;2023-02-28T09:42:14;9.80;;;7.77;;
291;SDS011;23311;48.776;9.162;2023-02-28T09:44:49;7.80;;;7.30;;
291;SDS011;23311;48.776;9.162;2023-02-28T09:47:18;9.10;;;8.03;;
291;SDS011;23311;48.776;9.162;2023-02-28T09:49:53;11.13;;;8.00;;
291;SDS011;23311;48.776;9.162;2023-02-28T09:52:27;10.17;;;7.77;;
291;SDS011;23311;48.776;9.162;2023-02-28T09:54:59;9.53;;;8.00;;
291;SDS011;23311;48.776;9.162;2023-02-28T09:57:44;8.50;;;7.60;;
291;SDS011;23311;48.776;9.162;2023-02-28T10:00:13;9.70;;;7.97;;
291;SDS011;23311;48.776;9.162;2023-02-28T10:02:51;11.53;;;8.67;;
291;SDS011;23311;48.776;9.162;2023-02-28T10:05:33;10.70;;;7.47;;
291;SDS011;23311;48.776;9.162;2023-02-28T10:08:07;9.30;;;7.87;;
291;SDS011;23311;48.776;9.162;2023-02-28T10:10:42;14.40;;;8.67;;
291;SDS011;23311;48.776;9.162;2023-02-28T10:13:21;8.90;;;7.10;;
291;SDS011;23311;48.776;9.162;2023-02-28T10:15:55;9.03;;;7.80;;
291;SDS011;23311;48.776;9.162;2023-02-28T10:18:38;7.60;;;7.20;;
291;SDS011;23311;48.776;9.162;2023-02-28T10:21:13;10.07;;;8.47;;
291;SDS011;23311;48.776;9.162;2023-02-28T10:23:48;11.17;;;7.20;;
291;SDS011;23311;48.776;9.162;2023-02-28T10:26:18;13.40;;;8.83;;
291;SDS011;23311;48.776;9.162;2023-02-28T10:28:48;9.80;;;8.40;;
291;SDS011;23311;48.776;9.162;2023-02-28T10:31:17;10.03;;;7.93;;
291;SDS011;23311;48.776;9.162;2023-02-28T10:33:47;9.37;;;8.50;;
291;SDS011;23311;48.776;9.162;2023-02-28T10:36:16;10.47;;;8.00;;
291;SDS011;23311;48.776;9.162;2023-02-28T10:38:46;11.23;;;8.60;;
291;SDS011;23311;48.776;9.162;2023-02-28T10:41:15;8.67;;;7.80;;
291;SDS011;23311;48.776;9.162;2023-02-28T10:44:08;11.33;;;8.20;;
291;SDS011;23311;48.776;9.162;2023-02-28T10:46:41;11.13;;;8.70;;
291;SDS011;23311;48.776;9.162;2023-02-28T10:49:14;12.73;;;8.57;;
291;SDS011;23311;48.776;9.162;2023-02-28T10:51:47;9.33;;;8.70;;
291;SDS011;23311;48.776;9.162;2023-02-28T10:54:20;9.17;;;8.40;;
291;SDS011;23311;48.776;9.162;2023-02-28T10:57:11;10.63;;;8.40;;
291;SDS011;23311;48.776;9.162;2023-02-28T10:59:46;9.57;;;7.37;;
291;SDS011;23311;48.776;9.162;2023-02-28T11:02:32;10.77;;;8.73;;
291;SDS011;23311;48.776;9.162;2023-02-28T11:05:02;11.23;;;7.83;;
291;SDS011;23311;48.776;9.162;2023-02-28T11:07:51;11.50;;;8.47;;
291;SDS011;23311;48.776;9.162;2023-02-28T11:10:20;12.47;;;9.57;;
291;SDS011;23311;48.776;9.162;2023-02-28T11:12:54;11.50;;;9.60;;
291;SDS011;23311;48.776;9.162;2023-02-28T11:15:27;11.30;;;8.30;;
291;SDS011;23311;48.776;9.162;2023-02-28T11:17:57;9.67;;;8.40;;
291;SDS011;23311;48.776;9.162;2023-02-28T11:20:28;9.27;;;8.10;;
291;SDS011;23311;48.776;9.162;2023-02-28T11:23:00;10.20;;;7.70;;
291;SDS011;23311;48.776;9.162;2023-02-28T11:25:30;9.77;;;7.73;;
291;SDS011;23311;48.776;9.162;2023-02-28T11:28:00;12.00;;;7.60;;
291;SDS011;23311;48.776;9.162;2023-02-28T11:30:33;8.33;;;7.60;;
291;SDS011;23311;48.776;9.162;2023-02-28T11:35:51;9.47;;;8.00;;
291;SDS011;23311;48.776;9.162;2023-02-28T11:38:21;8.33;;;7.30;;
291;SDS011;23311;48.776;9.162;2023-02-28T11:40:53;11.87;;;8.50;;
291;SDS011;23311;48.776;9.162;2023-02-28T11:43:35;10.30;;;8.90;;
291;SDS011;23311;48.776;9.162;2023-02-28T11:46:18;12.03;;;8.60;;
291;SDS011;23311;48.776;9.162;2023-02-28T11:48:53;9.23;;;7.90;;
291;SDS011;23311;48.776;9.162;2023-02-28T11:51:27;7.00;;;6.30;;
291;SDS011;23311;48.776;9.162;2023-02-28T11:54:03;10.43;;;8.13;;
291;SDS011;23311;48.776;9.162;2023-02-28T11:56:41;9.70;;;7.70;;
291;SDS011;23311;48.776;9.162;2023-02-28T11:59:19;14.07;;;10.23;;
291;SDS011;23311;48.776;9.162;2023-02-28T12:02:06;9.10;;;7.97;;
291;SDS011;23311;48.776;9.162;2023-02-28T12:04:52;11.80;;;8.63;;
291;SDS011;23311;48.776;9.162;2023-02-28T12:07:31;11.83;;;8.90;;
291;SDS011;23311;48.776;9.162;2023-02-28T12:10:07;10.00;;;8.13;;
291;SDS011;23311;48.776;9.162;2023-02-28T12:12:48;9.30;;;8.80;;
291;SDS011;23311;48.776;9.162;2023-02-28T12:15:28;9.73;;;8.40;;
291;SDS011;23311;48.776;9.162;2023-02-28T12:18:29;10.70;;;9.10;;
291;SDS011;23311;48.776;9.162;2023-02-28T12:21:10;12.70;;;8.53;;
291;SDS011;23311;48.776;9.162;2023-02-28T12:26:42;9.23;;;8.37;;
291;SDS011;23311;48.776;9.162;2023-02-28T12:29:15;9.57;;;8.10;;
291;SDS011;23311;48.776;9.162;2023-02-28T12:31:49;11.97;;;8.20;;
291;SDS011;23311;48.776;9.162;2023-02-28T12:34:28;9.53;;;8.20;;
291;SDS011;23311;48.776;9.162;2023-02-28T12:37:31;8.10;;;7.20;;
291;SDS011;23311;48.776;9.162;2023-02-28T12:40:05;9.93;;;7.87;;
291;SDS011;23311;48.776;9.162;2023-02-28T12:42:39;9.33;;;7.97;;
291;SDS011;23311;48.776;9.162;2023-02-28T12:45:10;10.33;;;7.10;;
291;SDS011;23311;48.776;9.162;2023-02-28T12:47:43;9.33;;;7.57;;
291;SDS011;23311;48.776;9.162;2023-02-28T12:52:47;8.20;;;7.80;;
291;SDS011;23311;48.776;9.162;2023-02-28T12:55:21;10.97;;;8.70;;
291;SDS011;23311;48.776;9.162;2023-02-28T12:57:57;9.97;;;8.03;;
291;SDS011;23311;48.776;9.162;2023-02-28T13:00:33;8.63;;;7.50;;
291;SDS011;23311;48.776;9.162;2023-02-28T13:06:30;11.53;;;8.40;;
291;SDS011;23311;48.776;9.162;2023-02-28T13:09:11;9.70;;;8.50;;
291;SDS011;23311;48.776;9.162;2023-02-28T13:11:42;12.77;;;7.83;;
291;SDS011;23311;48.776;9.162;2023-02-28T13:14:19;10.13;;;8.17;;
291;SDS011;23311;48.776;9.162;2023-02-28T13:16:53;9.90;;;7.60;;
291;SDS011;23311;48.776;9.162;2023-02-28T13:19:38;8.77;;;7.90;;
291;SDS011;23311;48.776;9.162;2023-02-28T13:28:13;10.33;;;8.57;;
291;SDS011;23311;48.776;9.162;2023-02-28T13:34:40;10.50;;;7.80;;
291;SDS011;23311;48.776;9.162;2023-02-28T13:43:03;11.27;;;8.07;;
291;SDS011;23311;48.776;9.162;2023-02-28T13:45:36;7.90;;;7.20;;
291;SDS011;23311;48.776;9.162;2023-02-28T13:48:15;8.40;;;6.93;;
291;SDS011;23311;48.776;9.162;2023-02-28T13:50:45;9.87;;;7.07;;
291;SDS011;23311;48.776;9.162;2023-02-28T13:53:24;8.83;;;7.13;;
291;SDS011;23311;48.776;9.162;2023-02-28T13:56:10;8.57;;;7.20;;
291;SDS011;23311;48.776;9.162;2023-02-28T13:58:54;8.47;;;7.10;;
291;SDS011;23311;48.776;9.162;2023-02-28T14:01:30;9.53;;;8.00;;
291;SDS011;23311;48.776;9.162;2023-02-28T14:07:17;11.70;;;8.63;;
291;SDS011;23311;48.776;9.162;2023-02-28T14:09:50;8.43;;;7.97;;
291;SDS011;23311;48.776;9.162;2023-02-28T14:12:55;11.30;;;8.07;;
291;SDS011;23311;48.776;9.162;2023-02-28T14:15:39;8.10;;;7.23;;
291;SDS011;23311;48.776;9.162;2023-02-28T14:18:15;8.60;;;7.13;;
291;SDS011;23311;48.776;9.162;2023-02-28T14:20:51;7.70;;;6.40;;
291;SDS011;23311;48.776;9.162;2023-02-28T14:26:43;7.13;;;6.77;;
291;SDS011;23311;48.776;9.162;2023-02-28T14:29:37;10.43;;;7.93;;
291;SDS011;23311;48.776;9.162;2023-02-28T14:32:27;9.20;;;7.57;;
291;SDS011;23311;48.776;9.162;2023-02-28T14:35:03;8.50;;;7.33;;
291;SDS011;23311;48.776;9.162;2023-02-28T14:37:41;8.10;;;6.73;;
291;SDS011;23311;48.776;9.162;2023-02-28T14:40:14;7.70;;;7.00;;
291;SDS011;23311;48.776;9.162;2023-02-28T14:42:46;7.23;;;6.83;;
291;SDS011;23311;48.776;9.162;2023-02-28T14:45:20;10.27;;;7.30;;
291;SDS011;23311;48.776;9.162;2023-02-28T14:47:49;8.93;;;7.40;;
291;SDS011;23311;48.776;9.162;2023-02-28T14:50:19;8.40;;;6.73;;
291;SDS011;23311;48.776;9.162;2023-02-28T14:52:50;8.50;;;7.27;;
291;SDS011;23311;48.776;9.162;2023-02-28T14:55:19;8.03;;;6.73;;
291;SDS011;23311;48.776;9.162;2023-02-28T14:57:52;13.50;;;7.73;;
291;SDS011;23311;48.776;9.162;2023-02-28T15:00:24;9.33;;;7.20;;
291;SDS011;23311;48.776;9.162;2023-02-28T15:02:54;10.17;;;6.80;;
291;SDS011;23311;48.776;9.162;2023-02-28T15:05:25;8.80;;;7.13;;
291;SDS011;23311;48.776;9.162;2023-02-28T15:08:01;11.50;;;8.10;;
291;SDS011;23311;48.776;9.162;2023-02-28T15:10:32;8.60;;;7.40;;
291;SDS011;23311;48.776;9.162;2023-02-28T15:13:02;10.17;;;7.73;;
291;SDS011;23311;48.776;9.162;2023-02-28T15:15:39;9.23;;;7.50;;
291;SDS011;23311;48.776;9.162;2023-02-28T15:18:30;7.67;;;7.30;;
291;SDS011;23311;48.776;9.162;2023-02-28T15:21:06;8.83;;;7.93;;
291;SDS011;23311;48.776;9.162;2023-02-28T15:23:36;9.07;;;7.87;;
291;SDS011;23311;48.776;9.162;2023-02-28T15:26:05;9.23;;;7.50;;
291;SDS011;23311;48.776;9.162;2023-02-28T15:28:33;8.50;;;6.97;;
291;SDS011;23311;48.776;9.162;2023-02-28T15:31:03;10.40;;;8.90;;
291;SDS011;23311;48.776;9.162;2023-02-28T15:33:54;7.90;;;7.07;;
291;SDS011;23311;48.776;9.162;2023-02-28T15:36:26;11.77;;;7.60;;
291;SDS011;23311;48.776;9.162;2023-02-28T15:38:59;10.23;;;8.17;;
291;SDS011;23311;48.776;9.162;2023-02-28T15:41:41;9.40;;;7.47;;
291;SDS011;23311;48.776;9.162;2023-02-28T15:44:24;9.90;;;7.67;;
291;SDS011;23311;48.776;9.162;2023-02-28T15:47:01;11.53;;;8.33;;
291;SDS011;23311;48.776;9.162;2023-02-28T15:49:35;7.73;;;7.33;;
291;SDS011;23311;48.776;9.162;2023-02-28T15:52:12;9.63;;;7.73;;
291;SDS011;23311;48.776;9.162;2023-02-28T15:54:42;10.40;;;7.93;;
291;SDS011;23311;48.776;9.162;2023-02-28T15:57:13;8.43;;;7.20;;
291;SDS011;23311;48.776;9.162;2023-02-28T15:59:48;11.10;;;7.60;;
291;SDS011;23311;48.776;9.162;2023-02-28T16:02:21;9.20;;;7.13;;
291;SDS011;23311;48.776;9.162;2023-02-28T16:04:59;12.40;;;7.80;;
291;SDS011;23311;48.776;9.162;2023-02-28T16:07:29;9.00;;;8.10;;
291;SDS011;23311;48.776;9.162;2023-02-28T16:09:57;9.80;;;8.00;;
291;SDS011;23311;48.776;9.162;2023-02-28T16:12:26;9.40;;;7.30;;
291;SDS011;23311;48.776;9.162;2023-02-28T16:14:56;8.60;;;7.00;;
291;SDS011;23311;48.776;9.162;2023-02-28T16:17:29;9.97;;;7.70;;
291;SDS011;23311;48.776;9.162;2023-02-28T16:20:00;9.87;;;7.90;;
291;SDS011;23311;48.776;9.162;2023-02-28T16:22:30;10.43;;;9.10;;
291;SDS011;23311;48.776;9.162;2023-02-28T16:24:58;8.53;;;7.43;;
291;SDS011;23311;48.776;9.162;2023-02-28T16:27:27;10.20;;;8.60;;